Time;durP1;ratioP1;P1;durP2;ratioP2;P2;SDS_P1;SDS_P2;PMS_P1;PMS_P2;Temp;Humidity;BMP_temperature;BMP_pressure;BME280_temperature;BME280_humidity;BME280_pressure;Samples;Min_cycle;Max_cycle;Signal;HPM_P1;HPM_P2
2023/06/04 00:01:31;;;;;;;3.40;2.90;;;15.30;68.70;;;;;;5113735;27;20658;-70
2023/06/04 00:03:58;;;;;;;4.90;3.40;;;15.20;68.50;;;;;;5117877;27;20632;-71
2023/06/04 00:06:25;;;;;;;3.20;2.80;;;15.10;69.60;;;;;;5108448;27;20651;-71
2023/06/04 00:08:53;;;;;;;5.43;2.90;;;14.90;70.00;;;;;;5116281;27;20632;-70
2023/06/04 00:11:20;;;;;;;3.07;2.77;;;14.80;69.40;;;;;;5116527;27;20660;-71
2023/06/04 00:13:47;;;;;;;3.67;3.23;;;14.90;69.80;;;;;;5112075;27;20621;-71
2023/06/04 00:16:14;;;;;;;6.03;3.53;;;14.90;69.90;;;;;;5114107;27;21276;-71
2023/06/04 00:18:41;;;;;;;3.20;2.90;;;15.00;69.20;;;;;;5117306;27;20658;-71
2023/06/04 00:21:08;;;;;;;3.27;2.87;;;14.90;69.90;;;;;;5110456;27;20844;-71
2023/06/04 00:23:35;;;;;;;3.60;3.30;;;14.90;69.60;;;;;;5113811;27;21376;-70
2023/06/04 00:26:03;;;;;;;5.93;3.97;;;14.80;70.80;;;;;;5110984;27;20695;-71
2023/06/04 00:28:30;;;;;;;3.83;2.53;;;14.70;71.40;;;;;;5117135;27;20626;-71
2023/06/04 00:30:56;;;;;;;5.37;3.07;;;14.70;72.80;;;;;;5118269;27;20664;-71
2023/06/04 00:33:23;;;;;;;3.83;2.70;;;14.70;71.30;;;;;;5119569;27;20631;-71
2023/06/04 00:35:50;;;;;;;4.63;2.97;;;14.70;71.60;;;;;;5108829;28;20650;-70
2023/06/04 00:38:17;;;;;;;3.27;2.97;;;14.60;70.90;;;;;;5120268;28;20613;-71
2023/06/04 00:40:44;;;;;;;2.33;2.13;;;14.60;71.00;;;;;;5109950;28;20777;-71
2023/06/04 00:43:13;;;;;;;4.97;3.50;;;14.60;70.70;;;;;;5110079;28;20624;-70
2023/06/04 00:45:40;;;;;;;3.33;2.70;;;14.60;69.60;;;;;;5105343;28;20658;-71
2023/06/04 00:48:07;;;;;;;3.43;2.80;;;14.50;70.80;;;;;;5108577;28;21254;-71
2023/06/04 00:50:35;;;;;;;4.90;3.60;;;14.60;69.10;;;;;;5111121;28;20653;-70
2023/06/04 00:53:02;;;;;;;3.17;1.93;;;14.60;69.50;;;;;;5117643;28;20651;-71
2023/06/04 00:55:29;;;;;;;2.97;2.67;;;14.60;68.40;;;;;;5105113;28;20664;-71
2023/06/04 00:57:56;;;;;;;3.07;2.83;;;14.60;69.10;;;;;;5113796;28;20653;-71
2023/06/04 01:00:24;;;;;;;3.50;2.97;;;14.50;70.50;;;;;;5109905;27;20678;-71
2023/06/04 01:02:53;;;;;;;4.00;3.00;;;14.50;70.40;;;;;;5119679;27;20668;-71
2023/06/04 01:05:38;;;;;;;5.00;3.30;;;14.50;70.80;;;;;;5105333;28;20646;-71
2023/06/04 01:08:09;;;;;;;6.23;2.97;;;14.50;69.10;;;;;;5119269;27;20623;-71
2023/06/04 01:10:36;;;;;;;4.93;2.93;;;14.50;68.10;;;;;;5110663;28;20657;-70
2023/06/04 01:13:03;;;;;;;3.33;3.03;;;14.50;68.10;;;;;;5114881;28;20993;-71
2023/06/04 01:15:32;;;;;;;3.70;3.30;;;14.40;69.00;;;;;;5109838;28;20759;-70
2023/06/04 01:18:02;;;;;;;3.37;2.90;;;14.40;68.50;;;;;;5111961;28;21026;-70
2023/06/04 01:20:36;;;;;;;3.87;2.33;;;14.30;69.40;;;;;;5110608;28;21050;-70
2023/06/04 01:23:33;;;;;;;3.17;2.73;;;14.30;71.30;;;;;;5119440;28;20658;-70
2023/06/04 01:26:03;;;;;;;3.43;2.93;;;14.10;71.80;;;;;;5104777;27;20661;-70
2023/06/04 01:28:33;;;;;;;3.50;2.93;;;14.00;72.60;;;;;;5114125;28;21250;-70
2023/06/04 01:31:03;;;;;;;4.73;3.60;;;14.00;73.00;;;;;;5092739;28;20672;-70
2023/06/04 01:33:30;;;;;;;5.80;3.40;;;13.90;73.00;;;;;;5106729;28;20878;-70
2023/06/04 01:35:57;;;;;;;2.87;2.27;;;14.00;73.70;;;;;;5113325;28;20713;-70
2023/06/04 01:38:24;;;;;;;3.63;3.33;;;13.90;73.80;;;;;;5117189;28;20676;-70
2023/06/04 01:40:55;;;;;;;4.17;2.70;;;13.90;73.60;;;;;;5109514;27;20669;-70
2023/06/04 01:43:22;;;;;;;6.53;3.83;;;13.90;73.70;;;;;;5109741;27;20630;-71
2023/06/04 01:45:50;;;;;;;5.43;3.27;;;14.00;72.20;;;;;;5113163;27;20675;-70
2023/06/04 01:48:19;;;;;;;4.10;2.90;;;14.00;73.60;;;;;;5122627;27;20630;-70
2023/06/04 01:50:48;;;;;;;8.13;3.87;;;13.90;73.20;;;;;;5109188;27;20665;-70
2023/06/04 01:53:15;;;;;;;4.23;3.13;;;13.90;75.00;;;;;;5121950;27;20616;-71
2023/06/04 01:55:43;;;;;;;3.00;2.70;;;13.90;73.20;;;;;;5122384;27;20660;-70
2023/06/04 01:58:11;;;;;;;3.30;2.73;;;13.70;73.50;;;;;;5113066;27;21013;-71
2023/06/04 02:00:38;;;;;;;2.90;2.70;;;13.60;73.00;;;;;;5123309;27;20666;-70
2023/06/04 02:03:05;;;;;;;2.23;2.03;;;13.50;72.60;;;;;;5114168;27;20651;-70
2023/06/04 02:05:33;;;;;;;6.27;2.73;;;13.50;73.10;;;;;;5120847;27;20658;-70
2023/06/04 02:08:04;;;;;;;3.70;2.80;;;13.40;73.30;;;;;;5122907;27;21213;-70
2023/06/04 02:10:33;;;;;;;4.80;3.33;;;13.40;74.10;;;;;;5105915;27;21203;-71
2023/06/04 02:13:03;;;;;;;2.93;2.47;;;13.30;73.90;;;;;;5120082;27;20637;-71
2023/06/04 02:15:31;;;;;;;2.47;2.27;;;13.30;74.00;;;;;;5113066;27;20701;-70
2023/06/04 02:17:59;;;;;;;3.80;2.53;;;13.30;74.20;;;;;;5113969;27;20635;-70
2023/06/04 02:20:27;;;;;;;3.63;3.00;;;13.20;74.60;;;;;;5124844;27;21240;-70
2023/06/04 02:22:56;;;;;;;4.50;2.70;;;13.20;75.30;;;;;;5119441;27;20624;-70
2023/06/04 02:25:23;;;;;;;3.57;3.03;;;13.20;75.80;;;;;;5112460;27;20728;-70
2023/06/04 02:27:50;;;;;;;4.87;2.57;;;13.30;75.10;;;;;;5122419;27;20610;-71
2023/06/04 02:30:17;;;;;;;3.10;2.80;;;13.30;75.40;;;;;;5116782;27;20631;-71
2023/06/04 02:32:44;;;;;;;4.17;3.20;;;13.40;75.60;;;;;;5121351;27;20626;-70
2023/06/04 02:35:12;;;;;;;4.37;2.83;;;13.30;75.30;;;;;;5110216;27;20742;-70
2023/06/04 02:37:39;;;;;;;4.90;3.40;;;13.30;75.80;;;;;;5112352;27;20631;-70
2023/06/04 02:40:10;;;;;;;3.57;2.60;;;13.40;74.70;;;;;;5117218;27;20666;-70
2023/06/04 02:42:37;;;;;;;3.07;2.80;;;13.20;75.70;;;;;;5105381;27;21434;-70
2023/06/04 02:45:06;;;;;;;5.53;3.80;;;13.00;76.80;;;;;;5107555;27;20624;-71
2023/06/04 02:47:34;;;;;;;2.70;2.50;;;12.90;77.40;;;;;;5113675;27;20714;-70
2023/06/04 02:50:03;;;;;;;2.83;2.63;;;12.80;78.00;;;;;;5114425;27;20621;-70
2023/06/04 02:52:32;;;;;;;3.73;3.20;;;12.90;78.20;;;;;;5121801;27;20638;-71
2023/06/04 02:55:03;;;;;;;4.53;3.00;;;13.00;77.10;;;;;;5119487;27;20654;-70
2023/06/04 02:57:32;;;;;;;9.40;3.57;;;13.10;76.40;;;;;;5121961;27;20623;-70
2023/06/04 02:59:59;;;;;;;5.90;3.70;;;12.90;77.80;;;;;;5120336;27;21169;-71
2023/06/04 03:02:27;;;;;;;4.47;3.07;;;12.80;77.40;;;;;;5116242;27;20660;-71
2023/06/04 03:04:55;;;;;;;2.70;2.50;;;12.70;77.70;;;;;;5107487;27;20726;-70
2023/06/04 03:07:22;;;;;;;3.23;2.30;;;12.70;78.20;;;;;;5120618;27;20657;-70
2023/06/04 03:09:50;;;;;;;4.23;3.20;;;12.70;78.90;;;;;;5116343;27;20662;-70
2023/06/04 03:12:18;;;;;;;3.03;2.80;;;12.70;78.40;;;;;;5122285;27;20650;-71
2023/06/04 03:14:46;;;;;;;3.10;2.67;;;12.70;78.10;;;;;;5118297;27;21096;-70
2023/06/04 03:17:13;;;;;;;2.40;2.20;;;12.60;78.40;;;;;;5121718;27;21014;-70
2023/06/04 03:19:41;;;;;;;4.60;2.90;;;12.60;78.20;;;;;;5108895;27;20709;-70
2023/06/04 03:22:10;;;;;;;5.03;2.57;;;12.70;78.30;;;;;;5115788;27;20783;-70
2023/06/04 03:24:39;;;;;;;4.60;2.67;;;12.60;78.20;;;;;;5116799;27;20688;-70
2023/06/04 03:27:07;;;;;;;8.73;3.60;;;12.60;78.10;;;;;;5119424;27;20651;-70
2023/06/04 03:29:35;;;;;;;3.00;2.80;;;12.60;77.80;;;;;;5117791;27;20644;-70
2023/06/04 03:32:04;;;;;;;3.67;3.10;;;12.70;77.80;;;;;;5121115;27;20660;-70
2023/06/04 03:34:31;;;;;;;4.40;2.97;;;12.70;77.30;;;;;;5106672;27;20623;-70
2023/06/04 03:37:00;;;;;;;2.53;2.33;;;12.70;76.60;;;;;;5109681;27;21281;-70
2023/06/04 03:39:27;;;;;;;4.50;2.33;;;12.60;76.60;;;;;;5116210;27;20618;-70
2023/06/04 03:41:55;;;;;;;6.60;2.60;;;12.70;76.10;;;;;;5118560;27;20683;-70
2023/06/04 03:44:23;;;;;;;2.47;2.00;;;12.60;76.20;;;;;;5117225;27;20631;-71
2023/06/04 03:46:50;;;;;;;7.27;2.03;;;12.60;76.60;;;;;;5117391;27;20671;-70
2023/06/04 03:49:19;;;;;;;2.50;2.30;;;12.50;76.90;;;;;;5112570;27;20627;-70
2023/06/04 03:51:46;;;;;;;1.93;1.80;;;12.50;76.30;;;;;;5114065;27;21238;-70
2023/06/04 03:54:16;;;;;;;6.30;2.70;;;12.50;76.70;;;;;;5119467;27;21225;-70
2023/06/04 03:56:44;;;;;;;4.23;2.60;;;12.60;75.80;;;;;;5116769;27;20942;-70
2023/06/04 03:59:11;;;;;;;3.00;2.80;;;12.60;75.90;;;;;;5106845;27;20624;-71
2023/06/04 04:01:39;;;;;;;3.30;1.90;;;12.60;76.00;;;;;;5102838;27;21258;-71
2023/06/04 04:04:06;;;;;;;3.23;2.37;;;12.70;75.40;;;;;;5115579;27;20975;-71
2023/06/04 04:06:35;;;;;;;5.23;2.53;;;12.60;74.40;;;;;;5120584;27;20737;-70
2023/06/04 04:09:02;;;;;;;2.20;2.00;;;12.70;75.40;;;;;;5119842;27;20636;-70
2023/06/04 04:11:29;;;;;;;2.70;2.33;;;12.70;76.10;;;;;;5117512;27;21074;-71
2023/06/04 04:13:58;;;;;;;2.30;1.93;;;12.70;76.80;;;;;;5117134;27;20624;-70
2023/06/04 04:16:25;;;;;;;2.57;2.33;;;12.70;76.20;;;;;;5119274;27;20658;-71
2023/06/04 04:18:52;;;;;;;4.43;2.57;;;12.80;75.40;;;;;;5102271;27;20722;-70
2023/06/04 04:21:18;;;;;;;2.03;1.70;;;12.80;75.60;;;;;;5119583;27;20668;-71
2023/06/04 04:23:47;;;;;;;2.97;2.70;;;12.90;75.80;;;;;;5114831;27;20650;-70
2023/06/04 04:26:16;;;;;;;1.87;1.77;;;12.90;75.00;;;;;;5116951;27;21183;-70
2023/06/04 04:28:43;;;;;;;1.60;1.50;;;13.00;73.80;;;;;;5112309;27;20625;-70
2023/06/04 04:31:10;;;;;;;3.80;2.63;;;13.00;72.40;;;;;;5110453;27;20659;-71
2023/06/04 04:33:39;;;;;;;2.00;1.67;;;13.10;73.20;;;;;;5112175;27;21195;-70
2023/06/04 04:36:08;;;;;;;2.87;1.80;;;13.00;73.40;;;;;;5116622;28;21257;-71
2023/06/04 04:38:35;;;;;;;1.80;1.70;;;13.10;73.00;;;;;;5116358;28;20634;-70
2023/06/04 04:41:04;;;;;;;3.20;1.90;;;13.20;72.50;;;;;;5116876;27;20673;-70
2023/06/04 04:43:33;;;;;;;1.67;1.53;;;13.30;72.10;;;;;;5100236;28;20987;-71
2023/06/04 04:46:00;;;;;;;2.40;1.73;;;13.20;71.60;;;;;;5118525;27;20641;-70
2023/06/04 04:48:27;;;;;;;2.60;1.47;;;13.20;70.90;;;;;;5115492;27;21237;-70
2023/06/04 04:50:54;;;;;;;2.40;1.97;;;13.20;70.60;;;;;;5118206;27;20647;-70
2023/06/04 04:53:24;;;;;;;2.60;1.60;;;13.20;70.40;;;;;;5111626;28;21166;-70
2023/06/04 04:55:50;;;;;;;2.03;1.87;;;13.30;70.10;;;;;;5106323;27;20731;-70
2023/06/04 04:58:18;;;;;;;1.83;1.50;;;13.40;68.60;;;;;;5107796;27;20676;-70
2023/06/04 05:00:47;;;;;;;1.40;1.30;;;13.50;69.00;;;;;;5115713;28;20675;-70
2023/06/04 05:03:14;;;;;;;2.57;2.10;;;13.70;69.00;;;;;;5108586;27;20616;-70
2023/06/04 05:05:41;;;;;;;2.97;2.47;;;13.70;68.90;;;;;;5109327;28;20754;-70
2023/06/04 05:08:07;;;;;;;2.03;1.53;;;13.70;68.60;;;;;;5118771;27;20639;-70
2023/06/04 05:10:35;;;;;;;1.73;1.60;;;13.60;68.40;;;;;;5116117;28;20656;-71
2023/06/04 05:13:04;;;;;;;1.63;1.53;;;13.60;68.00;;;;;;5115465;28;20731;-70
2023/06/04 05:15:32;;;;;;;2.40;2.30;;;13.70;69.00;;;;;;5119535;27;20644;-70
2023/06/04 05:18:01;;;;;;;2.10;1.93;;;13.70;69.00;;;;;;5119776;27;20616;-71
2023/06/04 05:20:28;;;;;;;2.23;2.13;;;13.80;69.50;;;;;;5119372;27;20698;-70
2023/06/04 05:22:55;;;;;;;2.33;2.03;;;13.80;68.40;;;;;;5122014;27;20617;-70
2023/06/04 05:25:22;;;;;;;1.90;1.60;;;13.80;68.50;;;;;;5120507;27;20616;-71
2023/06/04 05:27:51;;;;;;;3.03;2.00;;;13.90;67.70;;;;;;5118478;27;20621;-71
2023/06/04 05:30:18;;;;;;;1.67;1.47;;;13.90;66.90;;;;;;5122499;27;20730;-71
2023/06/04 05:32:46;;;;;;;1.67;1.57;;;13.90;67.80;;;;;;5112043;27;20624;-70
2023/06/04 05:35:12;;;;;;;2.93;2.40;;;14.00;67.30;;;;;;5116547;27;20637;-70
2023/06/04 05:37:41;;;;;;;2.10;1.63;;;14.00;67.10;;;;;;5111235;27;20630;-70
2023/06/04 05:40:10;;;;;;;1.93;1.60;;;14.10;66.60;;;;;;5115841;27;21028;-70
2023/06/04 05:42:37;;;;;;;2.30;1.40;;;14.20;66.30;;;;;;5103744;27;20753;-70
2023/06/04 05:45:05;;;;;;;1.40;1.30;;;14.30;65.90;;;;;;5117482;27;21098;-70
2023/06/04 05:47:31;;;;;;;2.80;2.00;;;14.40;64.80;;;;;;5116179;27;20631;-71
2023/06/04 05:50:00;;;;;;;3.20;1.60;;;14.40;65.60;;;;;;5119962;27;20624;-71
2023/06/04 05:52:27;;;;;;;1.70;1.33;;;14.60;65.50;;;;;;5117052;27;20709;-70
2023/06/04 05:54:54;;;;;;;2.00;1.87;;;14.90;65.20;;;;;;5116571;27;20673;-70
2023/06/04 05:57:21;;;;;;;2.00;1.80;;;15.20;65.00;;;;;;5122548;27;20740;-70
2023/06/04 05:59:48;;;;;;;3.20;1.70;;;15.00;64.40;;;;;;5121802;27;20685;-70
2023/06/04 06:02:15;;;;;;;1.50;1.30;;;15.00;64.90;;;;;;5120014;27;20682;-71
2023/06/04 06:04:42;;;;;;;1.73;1.47;;;15.00;66.50;;;;;;5116129;27;20631;-71
2023/06/04 06:07:10;;;;;;;1.50;1.40;;;15.00;65.40;;;;;;5118368;27;20654;-70
2023/06/04 06:09:37;;;;;;;1.70;1.50;;;15.00;65.10;;;;;;5124671;27;20663;-71
2023/06/04 06:12:05;;;;;;;2.47;2.30;;;15.10;65.20;;;;;;5106612;27;20641;-70
2023/06/04 06:14:32;;;;;;;1.90;1.10;;;15.10;64.80;;;;;;5120228;27;20609;-70
2023/06/04 06:16:59;;;;;;;2.77;1.80;;;15.10;63.70;;;;;;5115952;27;20652;-71
2023/06/04 06:19:26;;;;;;;1.63;1.50;;;15.10;62.60;;;;;;5120350;27;20643;-70
2023/06/04 06:21:53;;;;;;;2.20;1.00;;;15.00;61.70;;;;;;5120852;27;20692;-71
2023/06/04 06:24:21;;;;;;;1.30;1.20;;;15.10;62.80;;;;;;5122200;27;21186;-71
2023/06/04 06:26:47;;;;;;;1.60;1.27;;;15.20;63.10;;;;;;5109144;27;20660;-72
2023/06/04 06:29:14;;;;;;;1.03;0.90;;;15.40;62.50;;;;;;5105560;27;20628;-72
2023/06/04 06:31:41;;;;;;;1.77;1.33;;;15.80;62.10;;;;;;5118981;27;20718;-72
2023/06/04 06:34:08;;;;;;;1.50;1.40;;;16.00;61.00;;;;;;5119564;27;20619;-72
2023/06/04 06:36:35;;;;;;;1.73;1.13;;;16.00;60.10;;;;;;5110031;27;20664;-72
2023/06/04 06:39:01;;;;;;;1.20;1.10;;;16.20;59.80;;;;;;5112695;27;21548;-71
2023/06/04 06:41:30;;;;;;;1.50;1.40;;;16.40;58.80;;;;;;5112264;27;20678;-71
2023/06/04 06:43:57;;;;;;;1.35;1.25;;;16.50;58.20;;;;;;5118476;27;20763;-72
2023/06/04 06:46:24;;;;;;;1.10;1.00;;;16.50;58.80;;;;;;5118056;27;20223;-72
2023/06/04 06:48:51;;;;;;;2.80;1.43;;;16.70;57.90;;;;;;5113530;27;21026;-72
2023/06/04 06:51:18;;;;;;;1.27;1.17;;;16.90;59.00;;;;;;5121303;27;20664;-72
2023/06/04 06:53:45;;;;;;;1.30;1.20;;;17.10;58.20;;;;;;5117592;27;20631;-71
2023/06/04 06:56:12;;;;;;;1.47;1.30;;;17.10;57.80;;;;;;5114050;27;20654;-72
2023/06/04 06:58:40;;;;;;;2.47;1.70;;;17.20;58.00;;;;;;5110645;27;20621;-72
2023/06/04 07:01:07;;;;;;;1.20;1.10;;;17.20;58.90;;;;;;5117099;27;20669;-72
2023/06/04 07:03:33;;;;;;;2.03;1.60;;;17.50;58.50;;;;;;5117032;27;20721;-72
2023/06/04 07:06:00;;;;;;;1.20;1.10;;;17.50;58.30;;;;;;5100876;27;20659;-71
2023/06/04 07:08:28;;;;;;;2.13;1.27;;;17.20;58.00;;;;;;5091310;28;21272;-71
2023/06/04 07:10:55;;;;;;;1.57;1.30;;;17.60;58.10;;;;;;5107405;27;20756;-71
2023/06/04 07:13:21;;;;;;;1.17;1.07;;;17.80;57.80;;;;;;5114874;27;20630;-71
2023/06/04 07:15:50;;;;;;;1.70;1.20;;;17.90;57.70;;;;;;5119771;27;20659;-71
2023/06/04 07:18:16;;;;;;;1.47;1.37;;;18.00;57.40;;;;;;5115998;27;20612;-71
2023/06/04 07:20:43;;;;;;;1.70;1.60;;;18.20;57.00;;;;;;5119047;27;20653;-71
2023/06/04 07:23:10;;;;;;;1.37;1.30;;;18.30;56.40;;;;;;5119822;27;21112;-71
2023/06/04 07:25:37;;;;;;;2.70;2.40;;;18.30;57.20;;;;;;5119274;27;20664;-71
2023/06/04 07:28:04;;;;;;;1.57;1.30;;;18.30;56.90;;;;;;5120294;27;20961;-71
2023/06/04 07:30:31;;;;;;;1.30;1.13;;;18.40;56.90;;;;;;5115631;27;20662;-71
2023/06/04 07:33:00;;;;;;;1.53;1.43;;;18.50;57.10;;;;;;5113436;27;20625;-71
2023/06/04 07:35:29;;;;;;;2.07;1.80;;;18.60;56.90;;;;;;5099212;27;20656;-71
2023/06/04 07:37:56;;;;;;;1.37;1.27;;;18.80;56.60;;;;;;5096086;27;21249;-71
2023/06/04 07:40:23;;;;;;;1.80;1.30;;;19.00;56.60;;;;;;5112549;27;20625;-71
2023/06/04 07:42:50;;;;;;;1.50;1.40;;;19.20;56.40;;;;;;5104761;27;20669;-71
2023/06/04 07:45:17;;;;;;;1.57;1.47;;;19.40;55.30;;;;;;5103383;27;21063;-71
2023/06/04 07:47:44;;;;;;;2.33;1.53;;;19.00;55.60;;;;;;5119402;27;20620;-71
2023/06/04 07:50:12;;;;;;;1.57;1.43;;;19.00;55.90;;;;;;5112062;27;20973;-71
2023/06/04 07:52:39;;;;;;;2.83;2.60;;;18.80;55.90;;;;;;5112535;27;20995;-70
2023/06/04 07:55:08;;;;;;;3.73;1.40;;;18.90;56.20;;;;;;5116287;27;20627;-71
2023/06/04 07:57:35;;;;;;;1.43;1.33;;;18.90;56.50;;;;;;5109131;27;20620;-71
2023/06/04 08:00:05;;;;;;;1.60;1.50;;;19.00;56.70;;;;;;5117034;27;20627;-66
2023/06/04 08:02:32;;;;;;;1.50;1.40;;;19.40;56.20;;;;;;5115898;27;20652;-69
2023/06/04 08:04:58;;;;;;;1.40;1.30;;;19.90;55.50;;;;;;5114000;27;20612;-70
2023/06/04 08:07:27;;;;;;;1.60;1.50;;;20.10;55.10;;;;;;5123593;27;20687;-70
2023/06/04 08:09:55;;;;;;;1.30;1.20;;;20.50;54.10;;;;;;5112915;27;20633;-70
2023/06/04 08:12:22;;;;;;;1.87;1.67;;;20.40;54.70;;;;;;5106646;27;20655;-70
2023/06/04 08:14:50;;;;;;;1.40;1.30;;;20.20;54.70;;;;;;5103245;27;20620;-70
2023/06/04 08:17:16;;;;;;;2.20;1.70;;;20.10;55.00;;;;;;5110799;27;20743;-71
2023/06/04 08:19:43;;;;;;;1.13;1.13;;;19.80;54.60;;;;;;5105350;27;20969;-70
2023/06/04 08:22:11;;;;;;;2.30;1.80;;;19.70;54.60;;;;;;5121519;27;20681;-70
2023/06/04 08:24:40;;;;;;;1.80;1.40;;;19.70;55.20;;;;;;5101065;28;20649;-70
2023/06/04 08:27:08;;;;;;;2.73;1.27;;;20.10;55.00;;;;;;5098527;27;20659;-69
2023/06/04 08:29:35;;;;;;;1.67;1.57;;;20.50;54.20;;;;;;5113645;27;21021;-70
2023/06/04 08:32:02;;;;;;;2.73;1.60;;;20.30;53.40;;;;;;5112093;27;20670;-70
2023/06/04 08:34:29;;;;;;;1.90;1.53;;;20.10;53.80;;;;;;5115118;27;20696;-70
2023/06/04 08:36:56;;;;;;;3.00;1.20;;;20.60;54.10;;;;;;5110857;27;20647;-70
2023/06/04 08:39:23;;;;;;;1.77;1.30;;;20.70;54.10;;;;;;5111274;28;20628;-70
2023/06/04 08:41:55;;;;;;;2.30;1.53;;;20.70;54.20;;;;;;5115879;28;20671;-70
2023/06/04 08:44:22;;;;;;;1.80;1.70;;;21.10;53.70;;;;;;5107170;28;20613;-70
2023/06/04 08:46:53;;;;;;;2.10;1.90;;;21.10;53.90;;;;;;5117687;28;20658;-70
2023/06/04 08:49:22;;;;;;;1.33;1.23;;;21.40;54.30;;;;;;5113547;27;20631;-70
2023/06/04 08:51:49;;;;;;;1.83;1.50;;;21.30;54.00;;;;;;5118164;27;20643;-70
2023/06/04 08:54:16;;;;;;;1.43;1.33;;;21.40;53.00;;;;;;5118553;27;20615;-70
2023/06/04 08:56:45;;;;;;;1.93;1.70;;;21.50;52.50;;;;;;5105458;27;20641;-70
2023/06/04 08:59:13;;;;;;;2.00;1.57;;;21.70;53.50;;;;;;5125301;27;20628;-70
2023/06/04 09:01:44;;;;;;;2.43;2.20;;;21.80;52.40;;;;;;5120995;27;20670;-70
2023/06/04 09:04:11;;;;;;;2.30;2.10;;;22.00;51.20;;;;;;5107828;27;20610;-70
2023/06/04 09:06:40;;;;;;;2.57;2.37;;;22.20;50.90;;;;;;5123600;27;20643;-70
2023/06/04 09:09:10;;;;;;;2.20;2.00;;;22.20;50.50;;;;;;5110385;27;20629;-71
2023/06/04 09:11:42;;;;;;;2.13;1.53;;;22.30;50.30;;;;;;5115512;27;20656;-70
2023/06/04 09:14:10;;;;;;;1.70;1.60;;;22.40;50.90;;;;;;5120668;27;20633;-70
2023/06/04 09:16:45;;;;;;;1.57;1.47;;;22.60;49.60;;;;;;5106592;27;20673;-71
2023/06/04 09:19:12;;;;;;;1.63;1.53;;;22.50;50.20;;;;;;5109658;27;20629;-70
2023/06/04 09:21:50;;;;;;;4.30;2.10;;;22.50;50.10;;;;;;5119677;27;20666;-70
2023/06/04 09:24:16;;;;;;;2.17;2.07;;;22.70;50.20;;;;;;5110886;27;20669;-70
2023/06/04 09:26:43;;;;;;;2.07;1.87;;;22.90;50.10;;;;;;5113353;27;20725;-70
2023/06/04 09:29:10;;;;;;;2.37;2.17;;;22.90;49.70;;;;;;5110678;27;20631;-70
2023/06/04 09:31:39;;;;;;;2.53;2.17;;;22.80;50.00;;;;;;5119444;27;21255;-67
2023/06/04 09:34:07;;;;;;;3.07;1.97;;;23.10;50.10;;;;;;5109258;27;20643;-67
2023/06/04 09:36:35;;;;;;;1.80;1.70;;;23.10;50.60;;;;;;5117331;27;20648;-67
2023/06/04 09:39:04;;;;;;;2.00;1.90;;;23.20;48.90;;;;;;5117326;27;20628;-68
2023/06/04 09:41:32;;;;;;;3.23;2.70;;;23.20;48.90;;;;;;5106669;27;20680;-68
2023/06/04 09:44:03;;;;;;;1.80;1.70;;;23.20;49.60;;;;;;5118186;27;20623;-68
2023/06/04 09:46:30;;;;;;;2.20;1.80;;;23.30;48.80;;;;;;5115469;27;20658;-67
2023/06/04 09:49:01;;;;;;;1.73;1.63;;;23.30;49.10;;;;;;5119908;27;20616;-67
2023/06/04 09:51:30;;;;;;;1.73;1.40;;;23.40;49.00;;;;;;5117476;27;20659;-67
2023/06/04 09:53:58;;;;;;;2.97;1.70;;;23.40;48.20;;;;;;5116891;27;20862;-67
2023/06/04 09:56:26;;;;;;;2.40;2.20;;;23.60;47.80;;;;;;5124284;27;20658;-67
2023/06/04 09:58:56;;;;;;;1.63;1.53;;;23.80;49.80;;;;;;5111848;27;20650;-67
2023/06/04 10:01:25;;;;;;;1.60;1.50;;;23.70;49.00;;;;;;5117379;27;20651;-67
2023/06/04 10:03:52;;;;;;;3.27;2.10;;;23.70;47.90;;;;;;5108324;27;20643;-67
2023/06/04 10:06:21;;;;;;;2.10;1.90;;;23.80;47.40;;;;;;5115921;27;20659;-67
2023/06/04 10:08:50;;;;;;;2.30;2.03;;;23.80;46.50;;;;;;5122043;27;20615;-67
2023/06/04 10:11:22;;;;;;;2.30;2.10;;;23.90;47.60;;;;;;5119392;27;21043;-67
2023/06/04 10:13:55;;;;;;;1.97;1.87;;;24.20;48.70;;;;;;5110926;27;20659;-67
2023/06/04 10:16:22;;;;;;;3.13;2.37;;;24.20;47.90;;;;;;5121112;27;20650;-67
2023/06/04 10:18:49;;;;;;;2.70;2.50;;;24.30;47.90;;;;;;5114016;27;20619;-67
2023/06/04 10:21:18;;;;;;;2.43;2.17;;;24.60;47.80;;;;;;5118178;27;20647;-67
2023/06/04 10:23:46;;;;;;;2.60;2.40;;;24.60;48.00;;;;;;5121689;27;20663;-67
2023/06/04 10:26:16;;;;;;;2.50;2.30;;;24.70;46.70;;;;;;5115313;27;20656;-67
2023/06/04 10:28:43;;;;;;;2.83;2.40;;;24.80;46.00;;;;;;5123541;27;20620;-67
2023/06/04 10:31:10;;;;;;;2.70;2.50;;;24.90;45.40;;;;;;5113817;27;20669;-67
2023/06/04 10:33:37;;;;;;;2.37;2.20;;;24.80;46.20;;;;;;5115720;27;20622;-67
2023/06/04 10:36:18;;;;;;;2.10;1.90;;;24.90;45.50;;;;;;5112214;27;21251;-67
2023/06/04 10:38:49;;;;;;;3.40;2.70;;;24.90;45.40;;;;;;5114555;27;20651;-67
2023/06/04 10:41:18;;;;;;;2.47;2.27;;;25.20;46.90;;;;;;5107326;27;20651;-67
2023/06/04 10:43:49;;;;;;;2.30;2.10;;;25.30;47.50;;;;;;5117967;27;20667;-67
2023/06/04 10:46:16;;;;;;;2.23;2.13;;;25.50;45.20;;;;;;5110237;27;21053;-67
2023/06/04 10:48:47;;;;;;;2.40;2.20;;;25.60;44.40;;;;;;5116656;27;20975;-67
2023/06/04 10:51:14;;;;;;;2.50;2.30;;;25.60;45.90;;;;;;5112280;27;20654;-67
2023/06/04 10:53:41;;;;;;;3.00;2.50;;;25.40;43.90;;;;;;5111474;27;20625;-67
2023/06/04 10:56:08;;;;;;;1.87;1.77;;;25.50;44.80;;;;;;5112889;27;21189;-67
2023/06/04 10:58:36;;;;;;;5.30;2.13;;;25.70;44.60;;;;;;5118594;27;21225;-67
2023/06/04 11:01:03;;;;;;;3.20;2.50;;;25.80;44.60;;;;;;5117565;27;20659;-67
2023/06/04 11:03:37;;;;;;;2.00;1.87;;;25.90;44.70;;;;;;5108018;27;21106;-67
2023/06/04 11:06:15;;;;;;;2.27;2.07;;;26.10;44.30;;;;;;5113221;27;20983;-67
2023/06/04 11:08:41;;;;;;;4.80;3.00;;;26.30;45.40;;;;;;5116315;27;21074;-67
2023/06/04 11:11:12;;;;;;;3.23;2.30;;;26.30;44.40;;;;;;5120323;27;20767;-67
2023/06/04 11:13:40;;;;;;;3.23;2.93;;;26.50;44.40;;;;;;5112539;27;20623;-67
2023/06/04 11:16:16;;;;;;;3.03;2.73;;;26.60;44.70;;;;;;5109295;27;20655;-67
2023/06/04 11:18:43;;;;;;;2.30;2.10;;;26.90;42.50;;;;;;5105574;27;21176;-68
2023/06/04 11:21:11;;;;;;;2.73;2.53;;;27.10;43.00;;;;;;5102104;27;20654;-67
2023/06/04 11:23:38;;;;;;;2.47;2.27;;;27.30;43.00;;;;;;5120426;27;20724;-67
2023/06/04 11:26:04;;;;;;;2.30;2.10;;;27.70;42.10;;;;;;5119071;27;20658;-67
2023/06/04 11:28:32;;;;;;;2.80;2.50;;;27.90;41.50;;;;;;5119036;27;21174;-68
2023/06/04 11:31:03;;;;;;;3.03;2.77;;;28.20;41.80;;;;;;5112184;27;20667;-67
2023/06/04 11:33:29;;;;;;;2.90;2.60;;;28.60;41.10;;;;;;5117396;27;20626;-67
2023/06/04 11:35:56;;;;;;;2.47;2.27;;;28.90;42.40;;;;;;5116985;27;20725;-67
2023/06/04 11:38:23;;;;;;;4.83;2.30;;;29.00;41.10;;;;;;5102198;27;20623;-67
2023/06/04 11:40:57;;;;;;;3.03;2.47;;;28.40;41.40;;;;;;5117283;27;20661;-67
2023/06/04 11:43:24;;;;;;;2.43;2.23;;;28.40;41.00;;;;;;5113744;27;20672;-67
2023/06/04 11:45:51;;;;;;;3.43;2.40;;;28.80;39.80;;;;;;5114230;27;20654;-67
2023/06/04 11:48:20;;;;;;;2.73;2.53;;;29.10;39.80;;;;;;5112263;27;20654;-67
2023/06/04 11:50:47;;;;;;;2.73;2.50;;;29.10;39.60;;;;;;5098870;28;21015;-67
2023/06/04 11:53:14;;;;;;;2.50;2.30;;;29.50;42.30;;;;;;5120135;27;20623;-67
2023/06/04 11:55:41;;;;;;;4.40;2.17;;;29.70;40.70;;;;;;5120133;27;21233;-67
2023/06/04 11:58:08;;;;;;;2.20;2.10;;;30.50;40.80;;;;;;5117794;27;20627;-67
2023/06/04 12:00:35;;;;;;;2.60;1.83;;;30.30;38.30;;;;;;5115727;27;20668;-67
2023/06/04 12:03:01;;;;;;;2.30;1.97;;;29.20;40.50;;;;;;5111010;27;20664;-67
2023/06/04 12:05:32;;;;;;;2.53;2.33;;;27.50;39.40;;;;;;5112668;27;20647;-67
2023/06/04 12:08:06;;;;;;;2.70;2.50;;;27.60;42.00;;;;;;5119993;27;20723;-67
2023/06/04 12:10:38;;;;;;;3.40;3.10;;;27.60;40.60;;;;;;5110293;27;21334;-67
2023/06/04 12:13:05;;;;;;;3.60;2.90;;;28.30;40.10;;;;;;5125826;27;20702;-67
2023/06/04 12:15:32;;;;;;;3.20;2.70;;;29.70;40.60;;;;;;5108508;27;20982;-67
2023/06/04 12:17:59;;;;;;;4.03;2.33;;;30.70;41.00;;;;;;5115631;27;20623;-67
2023/06/04 12:20:35;;;;;;;2.67;2.43;;;31.60;38.70;;;;;;5114640;27;21201;-68
2023/06/04 12:23:02;;;;;;;2.93;2.73;;;31.30;38.40;;;;;;5120653;27;20765;-68
2023/06/04 12:25:31;;;;;;;2.90;2.70;;;30.10;38.40;;;;;;5116628;27;20655;-68
2023/06/04 12:27:57;;;;;;;2.60;2.40;;;29.80;38.40;;;;;;5116164;27;21178;-68
2023/06/04 12:30:35;;;;;;;1.80;1.70;;;30.80;39.00;;;;;;5115887;27;20659;-68
2023/06/04 12:33:02;;;;;;;2.30;1.80;;;31.70;36.60;;;;;;5113269;27;20659;-68
2023/06/04 12:35:28;;;;;;;2.80;2.60;;;31.70;37.80;;;;;;5113135;27;20667;-68
2023/06/04 12:37:56;;;;;;;2.60;2.40;;;31.70;36.90;;;;;;5119988;27;20620;-68
2023/06/04 12:40:23;;;;;;;3.03;2.73;;;33.00;36.30;;;;;;5115728;27;20658;-68
2023/06/04 12:42:51;;;;;;;2.13;2.03;;;33.50;35.50;;;;;;5112969;28;20683;-68
2023/06/04 12:45:18;;;;;;;2.57;2.37;;;33.10;34.40;;;;;;5114357;28;20754;-68
2023/06/04 12:47:46;;;;;;;3.20;2.90;;;33.30;35.20;;;;;;5114940;28;21135;-68
2023/06/04 12:50:13;;;;;;;2.50;2.37;;;32.20;36.80;;;;;;5109244;27;21285;-68
2023/06/04 12:52:40;;;;;;;2.70;2.50;;;33.00;34.80;;;;;;5108105;28;20733;-68